Time;durP1;ratioP1;P1;durP2;ratioP2;P2;SDS_P1;SDS_P2;PMS_P1;PMS_P2;Temp;Humidity;BMP_temperature;BMP_pressure;BME280_temperature;BME280_humidity;BME280_pressure;Samples;Min_cycle;Max_cycle;Signal;HPM_P1;HPM_P2
2021/06/18 00:00:51;;;;;;;5.45;2.30;;;;;;;18.79;65.61;100051.71;1666424;84;21106;-72
2021/06/18 00:03:18;;;;;;;4.00;1.92;;;;;;;18.68;66.07;100044.28;1673619;86;21003;-73
2021/06/18 00:05:45;;;;;;;5.83;2.10;;;;;;;18.61;66.44;100045.88;1673653;86;21544;-72
2021/06/18 00:08:11;;;;;;;6.90;2.25;;;;;;;18.58;66.53;100040.99;1674026;84;21070;-75
2021/06/18 00:10:39;;;;;;;4.47;2.00;;;;;;;18.57;66.32;100042.11;1712737;84;21034;-74
2021/06/18 00:13:05;;;;;;;3.90;1.70;;;;;;;18.54;66.26;100046.33;1691822;84;20975;-73
2021/06/18 00:15:32;;;;;;;3.52;2.02;;;;;;;18.50;66.31;100040.34;1685576;85;21066;-71
2021/06/18 00:17:59;;;;;;;5.92;2.30;;;;;;;18.45;66.34;100041.32;1664443;85;21071;-70
2021/06/18 00:20:25;;;;;;;4.30;2.10;;;;;;;18.44;66.53;100049.33;1679645;85;21162;-70
2021/06/18 00:22:52;;;;;;;3.83;2.00;;;;;;;18.40;66.61;100044.20;1690224;85;21089;-70
2021/06/18 00:25:18;;;;;;;;;;;;;;;18.35;66.64;100042.38;1681767;85;21029;-72
2021/06/18 00:27:44;;;;;;;3.33;1.90;;;;;;;18.32;66.65;100047.70;1678439;84;20108;-72
2021/06/18 00:30:11;;;;;;;;;;;;;;;18.20;66.81;100046.93;1668931;86;21492;-72
2021/06/18 00:32:38;;;;;;;4.72;1.82;;;;;;;18.14;67.04;100049.54;1690770;85;20116;-70
2021/06/18 00:35:07;;;;;;;3.85;1.80;;;;;;;18.06;67.30;100039.30;1704654;84;21093;-70
2021/06/18 00:37:34;;;;;;;5.42;2.00;;;;;;;18.08;66.97;100050.80;1687673;84;21029;-69
2021/06/18 00:40:03;;;;;;;3.55;1.87;;;;;;;18.06;67.00;100048.94;1666441;86;21130;-70
2021/06/18 00:42:30;;;;;;;5.33;2.08;;;;;;;18.02;67.04;100051.25;1649759;85;21089;-69
2021/06/18 00:44:56;;;;;;;5.10;1.82;;;;;;;17.95;67.16;100050.87;1676586;85;21133;-70
2021/06/18 00:47:22;;;;;;;;;;;;;;;17.93;67.12;100044.28;1681136;84;21009;-72
2021/06/18 00:49:50;;;;;;;4.85;1.72;;;;;;;17.94;66.94;100044.55;1666450;85;20193;-73
2021/06/18 00:52:16;;;;;;;4.37;2.05;;;;;;;17.89;66.99;100045.48;1676724;85;21084;-72
2021/06/18 00:54:44;;;;;;;6.15;2.08;;;;;;;17.88;67.11;100051.31;1662472;86;21157;-71
2021/06/18 00:57:11;;;;;;;4.10;1.82;;;;;;;17.83;67.21;100054.17;1671418;85;21030;-71
2021/06/18 00:59:37;;;;;;;3.33;1.85;;;;;;;17.78;67.28;100047.43;1694145;85;21150;-70
2021/06/18 01:02:04;;;;;;;2.60;1.65;;;;;;;17.78;67.22;100050.97;1690838;84;21039;-72
2021/06/18 01:04:31;;;;;;;5.55;2.12;;;;;;;17.78;67.25;100054.31;1635354;86;21094;-71
2021/06/18 01:07:13;;;;;;;6.37;1.92;;;;;;;17.76;67.28;100044.98;1739369;82;21924;-71
2021/06/18 01:09:48;;;;;;;3.58;1.70;;;;;;;17.70;67.47;100045.41;1744089;82;21036;-69
2021/06/18 01:12:18;;;;;;;5.12;1.50;;;;;;;17.61;67.65;100037.63;1735799;82;21051;-72
2021/06/18 01:16:18;;;;;;;3.35;1.80;;;;;;;17.60;67.74;100043.72;1801521;79;22820;-71
2021/06/18 01:18:48;;;;;;;6.95;1.72;;;;;;;17.51;67.77;100041.41;1758918;81;21066;-69
2021/06/18 01:21:22;;;;;;;4.20;1.70;;;;;;;17.46;67.83;100036.03;1752717;82;20988;-68
2021/06/18 01:24:05;;;;;;;4.80;1.90;;;;;;;17.46;67.82;100035.22;1753215;82;21058;-68
2021/06/18 01:26:56;;;;;;;3.60;1.82;;;;;;;17.46;67.79;100028.33;1725877;82;20936;-69
2021/06/18 01:29:23;;;;;;;4.78;2.10;;;;;;;17.41;67.86;100029.25;1753164;82;21557;-70
2021/06/18 01:31:49;;;;;;;;;;;;;;;17.31;68.05;100031.68;1753508;82;21014;-71
2021/06/18 01:34:24;;;;;;;3.72;1.92;;;;;;;17.30;68.05;100028.67;1752813;82;20107;-70
2021/06/18 01:36:53;;;;;;;5.95;1.80;;;;;;;17.28;68.17;100028.17;1753122;82;21843;-72
2021/06/18 01:39:19;;;;;;;4.08;1.87;;;;;;;17.26;68.14;100028.20;1744283;82;21117;-70
2021/06/18 01:41:46;;;;;;;4.62;2.25;;;;;;;17.22;68.26;100027.19;1628088;85;21038;-71
2021/06/18 01:44:13;;;;;;;5.62;1.80;;;;;;;17.16;68.41;100021.55;1656579;85;21086;-72
2021/06/18 01:46:39;;;;;;;2.52;1.70;;;;;;;17.14;68.37;100024.64;1661772;85;21089;-71
2021/06/18 01:49:08;;;;;;;;;;;;;;;17.16;68.17;100016.87;1680685;85;21147;-71
2021/06/18 01:51:36;;;;;;;4.67;1.72;;;;;;;17.18;68.11;100008.33;1712895;84;20105;-73
2021/06/18 01:54:03;;;;;;;;;;;;;;;17.09;70.60;100010.16;1696703;84;21088;-72
2021/06/18 01:56:33;;;;;;;4.62;1.77;;;;;;;17.03;72.23;100005.34;1713143;84;20419;-72
2021/06/18 01:59:00;;;;;;;6.17;1.65;;;;;;;17.07;72.93;100013.23;1679255;84;21633;-71
2021/06/18 02:01:34;;;;;;;2.77;1.60;;;;;;;17.13;72.94;100009.80;1678838;85;21534;-69
2021/06/18 02:04:02;;;;;;;4.42;1.47;;;;;;;17.15;73.21;100021.30;1684078;85;21922;-71
2021/06/18 02:06:29;;;;;;;4.67;1.70;;;;;;;17.11;73.33;100019.72;1657142;85;21058;-73
2021/06/18 02:08:58;;;;;;;6.20;1.50;;;;;;;17.10;73.37;100005.73;1663240;85;21093;-71
2021/06/18 02:11:25;;;;;;;3.00;1.42;;;;;;;17.12;73.14;100006.79;1678770;85;21090;-72
2021/06/18 02:13:53;;;;;;;5.15;1.32;;;;;;;17.12;73.06;100017.23;1684049;85;21010;-69
2021/06/18 02:16:20;;;;;;;6.00;1.60;;;;;;;17.08;72.71;100010.72;1666638;86;21089;-73
2021/06/18 02:18:48;;;;;;;4.03;1.47;;;;;;;17.01;72.77;100008.94;1671341;84;21676;-72
2021/06/18 02:21:14;;;;;;;;;;;;;;;17.00;72.52;100007.34;1670761;86;21542;-72
2021/06/18 02:23:41;;;;;;;2.62;1.37;;;;;;;17.06;72.25;100013.53;1697057;84;20110;-70
2021/06/18 02:26:07;;;;;;;5.47;1.50;;;;;;;17.02;72.10;100013.89;1678427;85;21500;-70
2021/06/18 02:28:34;;;;;;;3.55;1.30;;;;;;;17.02;71.92;100013.89;1685836;84;21053;-72
2021/06/18 02:31:01;;;;;;;2.37;1.40;;;;;;;17.04;71.79;100021.28;1696103;83;21587;-73
2021/06/18 02:33:28;;;;;;;3.70;1.35;;;;;;;17.10;71.23;100020.05;1696228;84;21085;-72
2021/06/18 02:35:55;;;;;;;;;;;;;;;17.15;70.79;100022.11;1671903;84;21536;-71
2021/06/18 02:38:21;;;;;;;3.20;1.37;;;;;;;17.17;70.56;100024.57;1696311;84;20230;-71
2021/06/18 02:40:48;;;;;;;4.30;1.12;;;;;;;17.08;70.74;100035.47;1725080;83;21061;-71
2021/06/18 02:43:14;;;;;;;;;;;;;;;17.06;70.53;100039.10;1698635;84;21029;-70
2021/06/18 02:45:41;;;;;;;4.40;1.40;;;;;;;17.09;70.08;100036.29;1695992;84;20271;-73
2021/06/18 02:48:16;;;;;;;3.37;1.42;;;;;;;17.09;69.99;100042.61;1693971;84;21026;-74
2021/06/18 02:50:54;;;;;;;4.10;1.40;;;;;;;17.13;69.60;100042.25;1695635;84;21096;-73
2021/06/18 02:53:50;;;;;;;5.40;1.40;;;;;;;17.10;69.27;100040.13;1673537;84;21062;-69
2021/06/18 02:56:31;;;;;;;5.85;1.52;;;;;;;17.13;69.23;100035.94;1632799;84;21470;-69
2021/06/18 02:59:26;;;;;;;2.95;1.02;;;;;;;17.19;69.05;100041.02;1696231;84;21090;-73
2021/06/18 03:02:00;;;;;;;3.98;1.10;;;;;;;17.26;68.33;100027.66;1724905;83;20999;-69
2021/06/18 03:04:28;;;;;;;4.55;1.20;;;;;;;17.37;67.96;100016.67;1696021;84;21113;-69
2021/06/18 03:07:08;;;;;;;3.95;1.37;;;;;;;17.48;67.69;100020.01;1695509;84;21776;-69
2021/06/18 03:09:39;;;;;;;4.92;1.40;;;;;;;17.64;67.26;100031.53;1695962;84;21584;-70
2021/06/18 03:12:08;;;;;;;3.08;1.50;;;;;;;17.81;66.41;100029.72;1696011;84;21508;-73
2021/06/18 03:14:35;;;;;;;4.92;1.30;;;;;;;18.05;65.55;100032.16;1669653;85;21577;-72
2021/06/18 03:17:05;;;;;;;3.30;1.15;;;;;;;18.27;64.70;100032.14;1695935;84;21521;-71
2021/06/18 03:19:39;;;;;;;2.80;1.10;;;;;;;18.51;64.30;100036.50;1724659;83;21536;-70
2021/06/18 03:22:06;;;;;;;6.72;1.30;;;;;;;18.75;62.99;100033.61;1695921;84;21054;-72
2021/06/18 03:24:33;;;;;;;3.77;1.10;;;;;;;18.89;61.99;100034.88;1722814;83;21065;-71
2021/06/18 03:26:59;;;;;;;;;;;;;;;19.05;61.32;100038.02;1698714;84;21016;-71
2021/06/18 03:29:27;;;;;;;3.80;1.40;;;;;;;19.18;60.81;100041.20;1670268;84;20414;-71
2021/06/18 03:31:54;;;;;;;4.35;1.02;;;;;;;19.23;60.30;100043.27;1696381;84;20962;-73
2021/06/18 03:34:22;;;;;;;6.45;1.42;;;;;;;19.40;59.87;100043.86;1696100;84;21058;-73
2021/06/18 03:36:49;;;;;;;6.42;1.30;;;;;;;19.54;58.95;100038.21;1694008;84;20966;-72
2021/06/18 03:39:15;;;;;;;6.45;1.40;;;;;;;19.58;58.46;100040.58;1670333;84;21960;-71
2021/06/18 03:41:42;;;;;;;4.75;1.50;;;;;;;19.57;58.20;100041.70;1696117;84;21042;-71
2021/06/18 03:44:08;;;;;;;3.83;0.90;;;;;;;19.57;58.33;100038.94;1663242;86;21548;-72
2021/06/18 03:46:35;;;;;;;2.62;1.20;;;;;;;19.65;58.13;100042.28;1670222;84;21047;-70
2021/06/18 03:49:01;;;;;;;4.10;1.10;;;;;;;19.70;58.21;100035.20;1667856;86;22441;-68
2021/06/18 03:51:28;;;;;;;5.83;1.25;;;;;;;19.86;57.97;100050.16;1695727;84;21086;-70
2021/06/18 03:53:57;;;;;;;4.12;1.17;;;;;;;20.02;57.43;100047.70;1667875;86;21580;-71
2021/06/18 03:56:23;;;;;;;2.60;1.00;;;;;;;20.15;56.97;100050.30;1695632;84;21017;-70
2021/06/18 03:58:49;;;;;;;2.83;1.22;;;;;;;20.17;56.97;100046.63;1696033;83;21034;-71
2021/06/18 04:01:16;;;;;;;5.03;1.10;;;;;;;20.29;56.55;100047.38;1695724;84;21089;-72
2021/06/18 04:03:46;;;;;;;7.35;1.52;;;;;;;20.34;56.20;100048.57;1679405;84;21337;-70
2021/06/18 04:06:12;;;;;;;4.05;1.02;;;;;;;20.35;56.04;100033.05;1724708;83;21097;-72
2021/06/18 04:08:40;;;;;;;2.95;1.15;;;;;;;20.40;56.15;100040.37;1695707;84;21113;-72
2021/06/18 04:11:08;;;;;;;5.30;1.12;;;;;;;20.49;56.12;100048.62;1724899;83;21089;-72
2021/06/18 04:13:36;;;;;;;4.90;1.22;;;;;;;20.56;55.75;100053.89;1693739;84;21120;-73
2021/06/18 04:16:09;;;;;;;3.70;1.32;;;;;;;20.62;55.11;100051.73;1724560;83;21038;-69
2021/06/18 04:18:37;;;;;;;3.62;1.10;;;;;;;20.63;55.18;100056.95;1689649;84;21079;-74
2021/06/18 04:21:11;;;;;;;7.12;1.10;;;;;;;20.67;55.11;100059.30;1698552;84;21101;-74
2021/06/18 04:23:38;;;;;;;3.12;0.95;;;;;;;20.74;55.12;100053.26;1695675;84;21540;-71
2021/06/18 04:26:04;;;;;;;3.20;1.00;;;;;;;20.80;54.82;100052.73;1647865;84;21556;-72
2021/06/18 04:28:31;;;;;;;4.28;1.20;;;;;;;20.90;55.04;100052.14;1695916;84;21049;-72
2021/06/18 04:30:57;;;;;;;3.80;1.07;;;;;;;20.98;54.74;100052.09;1683623;84;21071;-74
2021/06/18 04:33:24;;;;;;;6.03;1.20;;;;;;;21.12;54.26;100059.61;1668189;84;21077;-73
2021/06/18 04:35:50;;;;;;;3.35;1.00;;;;;;;21.25;53.77;100060.53;1696066;84;21023;-72
2021/06/18 04:38:17;;;;;;;3.33;1.10;;;;;;;21.36;53.06;100056.81;1668007;86;21570;-74
2021/06/18 04:40:43;;;;;;;2.83;0.88;;;;;;;21.39;52.99;100054.18;1670623;84;21549;-72
2021/06/18 04:43:09;;;;;;;4.20;1.05;;;;;;;21.55;53.34;100056.58;1667799;86;21154;-73
2021/06/18 04:45:36;;;;;;;2.20;0.95;;;;;;;21.73;52.78;100055.88;1695759;84;21571;-73
2021/06/18 04:48:04;;;;;;;4.87;1.20;;;;;;;21.82;52.61;100049.70;1667678;86;21510;-73
2021/06/18 04:50:30;;;;;;;6.67;1.00;;;;;;;21.98;52.05;100059.61;1697817;83;21765;-73
2021/06/18 04:52:58;;;;;;;3.92;1.07;;;;;;;21.99;51.63;100057.89;1695874;83;21085;-73
2021/06/18 04:55:25;;;;;;;3.70;0.88;;;;;;;22.06;51.86;100058.16;1621416;86;21050;-73
2021/06/18 04:57:51;;;;;;;2.37;0.93;;;;;;;22.14;51.76;100057.24;1663571;84;21092;-74
2021/06/18 05:00:18;;;;;;;3.83;1.10;;;;;;;22.18;51.39;100060.14;1667969;86;21596;-71
2021/06/18 05:02:44;;;;;;;7.05;1.30;;;;;;;22.16;51.40;100059.12;1667878;86;21002;-72
2021/06/18 05:05:11;;;;;;;3.98;1.15;;;;;;;22.26;51.56;100052.33;1667757;86;21105;-72
2021/06/18 05:07:38;;;;;;;5.70;1.55;;;;;;;22.30;50.79;100048.53;1667704;86;21054;-73
2021/06/18 05:10:09;;;;;;;6.95;1.50;;;;;;;22.24;51.04;100041.59;1668143;85;21122;-72
2021/06/18 05:12:37;;;;;;;3.62;0.88;;;;;;;22.30;51.02;100047.16;1695941;84;21020;-72
2021/06/18 05:15:06;;;;;;;5.28;1.10;;;;;;;22.25;50.70;100035.45;1667256;86;21097;-73
2021/06/18 05:17:33;;;;;;;3.42;1.00;;;;;;;22.11;51.08;100037.71;1687633;84;21014;-72
2021/06/18 05:20:00;;;;;;;3.27;1.20;;;;;;;22.07;51.20;100042.34;1667648;85;21077;-72
2021/06/18 05:22:27;;;;;;;3.33;1.30;;;;;;;22.15;51.62;100038.66;1696056;84;21046;-74
2021/06/18 05:24:53;;;;;;;4.50;1.17;;;;;;;22.31;51.63;100036.30;1668028;86;21576;-73
2021/06/18 05:27:19;;;;;;;3.52;1.00;;;;;;;22.50;51.05;100032.97;1695779;83;21169;-75
2021/06/18 05:29:46;;;;;;;2.77;1.10;;;;;;;22.67;50.72;100034.78;1694172;84;21648;-74
2021/06/18 05:32:12;;;;;;;2.00;1.10;;;;;;;22.81;51.03;100033.27;1695743;84;21056;-72
2021/06/18 05:34:39;;;;;;;3.45;1.02;;;;;;;23.00;50.43;100036.06;1666227;86;21078;-71
2021/06/18 05:37:05;;;;;;;11.50;1.67;;;;;;;23.04;50.12;100036.41;1695757;84;21065;-73
2021/06/18 05:39:32;;;;;;;2.52;1.05;;;;;;;23.08;49.69;100029.02;1642886;86;21136;-71
2021/06/18 05:41:58;;;;;;;2.90;1.05;;;;;;;23.24;50.16;100027.13;1662807;86;21127;-73
2021/06/18 05:44:25;;;;;;;2.05;0.90;;;;;;;23.37;49.70;100023.77;1673485;86;21138;-72
2021/06/18 05:46:51;;;;;;;4.00;1.00;;;;;;;23.50;49.41;100031.52;1675043;84;21482;-71
2021/06/18 05:49:18;;;;;;;3.62;1.15;;;;;;;23.65;49.51;100023.28;1673473;86;21087;-73
2021/06/18 05:51:44;;;;;;;5.37;1.20;;;;;;;23.73;48.74;100024.30;1673191;86;21139;-72
2021/06/18 05:54:11;;;;;;;5.87;1.20;;;;;;;23.75;48.75;100022.78;1695833;84;21117;-74
2021/06/18 05:56:39;;;;;;;4.47;1.10;;;;;;;23.77;48.63;100023.22;1691125;84;21093;-74
2021/06/18 05:59:06;;;;;;;4.30;1.17;;;;;;;23.88;49.01;100025.53;1724761;83;21038;-71
2021/06/18 06:01:32;;;;;;;2.15;1.07;;;;;;;24.03;48.81;100026.95;1695799;84;21588;-72
2021/06/18 06:03:59;;;;;;;3.65;1.00;;;;;;;24.13;48.27;100025.08;1725306;83;21114;-72
2021/06/18 06:06:26;;;;;;;3.05;1.17;;;;;;;24.14;48.08;100026.70;1693805;84;20993;-74
2021/06/18 06:08:54;;;;;;;3.60;1.30;;;;;;;24.12;48.33;100030.41;1725141;83;21038;-70
2021/06/18 06:11:22;;;;;;;3.90;1.25;;;;;;;24.12;48.36;100034.58;1695793;84;21061;-73
2021/06/18 06:13:50;;;;;;;5.72;1.25;;;;;;;24.14;49.22;100029.48;1721459;83;21051;-72
2021/06/18 06:16:17;;;;;;;3.15;1.12;;;;;;;24.14;49.22;100029.48;1658485;86;21047;-72
2021/06/18 06:18:45;;;;;;;2.20;1.00;;;;;;;24.28;49.24;100031.84;1709731;84;21594;-74
2021/06/18 06:21:11;;;;;;;3.55;1.65;;;;;;;24.58;48.10;100032.26;1709879;83;21047;-73
2021/06/18 06:23:37;;;;;;;4.00;1.02;;;;;;;24.63;47.82;100020.27;1709958;84;21102;-70
2021/06/18 06:26:05;;;;;;;5.78;1.40;;;;;;;24.69;48.12;100021.60;1711750;82;21027;-70
2021/06/18 06:28:32;;;;;;;4.05;1.45;;;;;;;24.96;47.59;100019.93;1663684;86;21644;-73
2021/06/18 06:30:58;;;;;;;6.42;1.40;;;;;;;24.96;47.59;100019.93;1709917;84;21071;-72
2021/06/18 06:33:25;;;;;;;4.72;1.30;;;;;;;24.96;47.14;100012.97;1655744;86;21099;-73
2021/06/18 06:35:51;;;;;;;2.98;1.10;;;;;;;25.02;47.95;100021.84;1710144;84;21272;-73
2021/06/18 06:38:19;;;;;;;6.83;1.55;;;;;;;25.06;47.63;100015.20;1709950;84;21043;-74
2021/06/18 06:40:50;;;;;;;5.87;1.40;;;;;;;25.16;47.52;100023.00;1709590;84;21629;-73
2021/06/18 06:43:16;;;;;;;5.75;1.10;;;;;;;25.26;47.36;100017.44;1710322;82;21526;-73
2021/06/18 06:45:44;;;;;;;3.47;1.40;;;;;;;25.32;46.48;100016.01;1709939;82;21122;-73
2021/06/18 06:48:11;;;;;;;5.40;1.30;;;;;;;25.23;46.51;100009.81;1664137;86;21514;-75
2021/06/18 06:50:38;;;;;;;6.47;1.50;;;;;;;25.29;47.69;100003.39;1689657;84;21024;-74
2021/06/18 06:53:06;;;;;;;4.83;1.30;;;;;;;25.49;46.52;100004.45;1650429;86;21884;-74
2021/06/18 06:55:34;;;;;;;4.28;1.10;;;;;;;25.55;46.89;100009.17;1709604;84;21067;-72
2021/06/18 06:58:01;;;;;;;4.95;1.45;;;;;;;25.56;47.00;100009.40;1709983;83;21035;-73
2021/06/18 07:00:27;;;;;;;3.62;1.17;;;;;;;25.69;46.72;100008.89;1709729;84;21067;-73
2021/06/18 07:02:54;;;;;;;6.08;1.47;;;;;;;25.84;46.25;100008.60;1711876;82;21027;-72
2021/06/18 07:05:20;;;;;;;4.80;1.32;;;;;;;25.96;46.25;100011.25;1663536;86;21040;-72
2021/06/18 07:07:47;;;;;;;3.95;1.37;;;;;;;26.04;45.94;100014.38;1709795;84;21078;-76
2021/06/18 07:10:13;;;;;;;2.33;1.02;;;;;;;25.95;45.60;100015.79;1663670;86;21071;-73
2021/06/18 07:12:40;;;;;;;7.05;1.30;;;;;;;25.97;45.58;100010.67;1728963;82;21062;-71
2021/06/18 07:15:09;;;;;;;3.35;1.02;;;;;;;25.98;46.13;100014.47;1739167;82;21083;-70
2021/06/18 07:17:35;;;;;;;4.97;1.50;;;;;;;26.07;45.49;100012.86;1751436;82;21074;-70
2021/06/18 07:20:02;;;;;;;4.03;1.00;;;;;;;25.96;45.45;100001.49;1753195;82;21605;-71
2021/06/18 07:22:30;;;;;;;4.37;1.37;;;;;;;25.93;45.68;99999.44;1750655;81;21019;-73
2021/06/18 07:24:59;;;;;;;10.08;2.10;;;;;;;25.93;46.21;100000.84;1752881;82;21082;-72
2021/06/18 07:27:26;;;;;;;5.87;1.62;;;;;;;25.98;45.12;99999.13;1753101;81;21023;-69
2021/06/18 07:29:53;;;;;;;5.42;1.67;;;;;;;25.88;45.18;99999.73;1753035;82;21130;-71
2021/06/18 07:32:22;;;;;;;5.15;1.60;;;;;;;25.90;45.65;99994.58;1700103;83;21038;-74
2021/06/18 07:34:48;;;;;;;4.33;1.07;;;;;;;26.04;45.43;99998.26;1686083;85;21075;-74
2021/06/18 07:37:15;;;;;;;21.30;6.25;;;;;;;26.24;45.08;99994.28;1723294;83;21098;-73
2021/06/18 07:39:42;;;;;;;20.32;8.00;;;;;;;26.34;44.51;99997.86;1723440;83;21050;-74
2021/06/18 07:42:08;;;;;;;4.62;1.30;;;;;;;26.40;45.42;99996.95;1725129;82;21014;-71
2021/06/18 07:44:38;;;;;;;2.02;0.85;;;;;;;26.58;45.66;99998.08;1723593;82;21031;-73
2021/06/18 07:47:05;;;;;;;4.80;1.50;;;;;;;26.83;45.13;99997.94;1741247;82;21066;-73
2021/06/18 07:49:33;;;;;;;9.00;2.00;;;;;;;26.92;44.12;100000.48;1753032;82;21055;-73
2021/06/18 07:52:00;;;;;;;3.55;1.02;;;;;;;26.94;43.75;99993.34;1750730;81;21680;-73
2021/06/18 07:54:26;;;;;;;5.15;1.37;;;;;;;26.83;42.92;99992.94;1753214;81;21035;-74
2021/06/18 07:56:54;;;;;;;4.80;1.42;;;;;;;26.70;43.82;99992.31;1753208;82;21031;-74
2021/06/18 07:59:21;;;;;;;2.08;0.95;;;;;;;26.72;43.90;99990.75;1753107;82;21102;-75
2021/06/18 08:01:48;;;;;;;3.00;1.05;;;;;;;26.80;44.00;99994.47;1731415;82;21066;-73
2021/06/18 08:04:14;;;;;;;3.30;1.07;;;;;;;26.72;43.90;99987.95;1725397;82;21600;-72
2021/06/18 08:06:40;;;;;;;4.72;1.30;;;;;;;26.89;44.46;99999.84;1685940;85;20995;-73
2021/06/18 08:09:07;;;;;;;3.95;0.90;;;;;;;27.08;43.65;99998.34;1723164;83;21558;-73
2021/06/18 08:11:34;;;;;;;4.33;1.42;;;;;;;27.17;43.84;100011.46;1676788;85;21569;-72
2021/06/18 08:14:00;;;;;;;3.62;1.27;;;;;;;27.14;43.54;100010.20;1723297;83;21042;-72
2021/06/18 08:16:27;;;;;;;3.58;1.35;;;;;;;27.14;43.73;100017.78;1719053;83;21100;-73
2021/06/18 08:18:54;;;;;;;2.62;1.20;;;;;;;27.17;43.12;100018.45;1709577;84;21052;-73
2021/06/18 08:21:20;;;;;;;3.37;1.02;;;;;;;27.14;43.15;100013.59;1711369;82;21859;-72
2021/06/18 08:23:48;;;;;;;5.40;1.20;;;;;;;27.04;43.56;100027.61;1663748;86;21143;-74
2021/06/18 08:26:14;;;;;;;2.45;1.00;;;;;;;27.00;43.37;100023.95;1709768;84;21011;-72
2021/06/18 08:28:40;;;;;;;3.20;1.20;;;;;;;27.04;43.87;100026.22;1709822;84;21091;-74
2021/06/18 08:31:07;;;;;;;3.50;1.10;;;;;;;27.06;43.66;100020.27;1645933;86;21046;-74
2021/06/18 08:33:35;;;;;;;3.33;1.07;;;;;;;27.11;43.57;100025.52;1709521;84;21071;-72
2021/06/18 08:36:02;;;;;;;4.85;1.20;;;;;;;27.08;44.22;100017.89;1709707;84;21518;-73
2021/06/18 08:38:34;;;;;;;7.25;1.10;;;;;;;27.16;44.17;100019.03;1709733;84;21048;-75
2021/06/18 08:41:04;;;;;;;4.35;1.10;;;;;;;27.23;44.17;100030.91;1711600;82;21043;-73
2021/06/18 08:43:31;;;;;;;2.92;1.10;;;;;;;27.28;44.05;100037.56;1642836;86;21079;-72
2021/06/18 08:46:02;;;;;;;5.87;1.02;;;;;;;27.36;44.30;100023.91;1709775;83;20995;-73
2021/06/18 08:48:31;;;;;;;3.20;1.02;;;;;;;27.61;44.62;100023.70;1663964;86;22025;-72
2021/06/18 08:50:58;;;;;;;4.65;1.10;;;;;;;27.81;44.00;100034.14;1737595;82;20964;-72
2021/06/18 08:53:25;;;;;;;5.42;1.25;;;;;;;27.83;43.66;100025.38;1739522;82;21012;-73
2021/06/18 08:55:51;;;;;;;2.40;1.02;;;;;;;27.88;43.95;100020.86;1738945;82;21602;-71
2021/06/18 08:58:18;;;;;;;3.70;1.10;;;;;;;28.00;43.89;100033.99;1739103;82;21082;-73
2021/06/18 09:00:47;;;;;;;4.22;1.37;;;;;;;28.06;42.04;100031.06;1719925;81;21381;-72
2021/06/18 09:03:44;;;;;;;4.72;1.20;;;;;;;27.99;42.48;100018.38;1663522;86;20984;-73
2021/06/18 09:06:32;;;;;;;4.40;1.20;;;;;;;27.89;42.79;100018.25;1691020;84;20988;-73
2021/06/18 09:09:21;;;;;;;6.25;1.35;;;;;;;27.81;43.53;100024.97;1723862;82;21264;-72
2021/06/18 09:11:55;;;;;;;3.70;1.00;;;;;;;27.81;43.76;100020.16;1738825;82;21000;-71
2021/06/18 09:14:34;;;;;;;5.10;1.23;;;;;;;27.84;43.84;100032.00;1739036;82;21629;-72
2021/06/18 09:17:23;;;;;;;6.25;1.20;;;;;;;27.90;42.73;100033.27;1742469;81;21116;-75
2021/06/18 09:20:03;;;;;;;4.08;0.90;;;;;;;27.91;43.58;100038.28;1745274;82;21022;-73
2021/06/18 09:22:40;;;;;;;5.62;1.17;;;;;;;27.88;44.21;100032.05;1746780;82;20968;-74
2021/06/18 09:25:14;;;;;;;5.65;1.10;;;;;;;27.97;43.98;100040.95;1747152;82;21035;-75
2021/06/18 09:27:51;;;;;;;7.33;1.37;;;;;;;28.02;42.80;100046.22;1739041;82;21498;-75
2021/06/18 09:30:26;;;;;;;11.57;1.55;;;;;;;27.91;42.81;100020.91;1717522;83;21050;-74
2021/06/18 09:33:12;;;;;;;2.87;0.88;;;;;;;27.71;42.91;100034.81;1683330;85;21083;-74
2021/06/18 09:36:07;;;;;;;4.83;1.12;;;;;;;27.58;43.63;100016.66;1653890;87;21018;-75
2021/06/18 09:41:44;;;;;;;4.70;1.17;;;;;;;27.53;44.60;100016.39;1695713;80;21794;-71
2021/06/18 09:44:18;;;;;;;7.22;1.50;;;;;;;27.65;44.39;100025.15;1663695;86;21075;-72
2021/06/18 09:46:55;;;;;;;5.55;1.40;;;;;;;27.73;44.90;100021.27;1637642;88;21042;-72
2021/06/18 09:49:33;;;;;;;4.15;1.00;;;;;;;27.85;43.28;100014.60;1610163;89;21080;-71
2021/06/18 09:52:09;;;;;;;5.75;1.40;;;;;;;27.79;44.11;100020.33;1637852;88;21039;-72
2021/06/18 09:54:41;;;;;;;4.40;1.30;;;;;;;27.77;43.13;100015.12;1610208;89;21188;-73
2021/06/18 09:57:14;;;;;;;6.08;1.07;;;;;;;27.77;43.58;100014.32;1667965;86;21095;-72
2021/06/18 09:59:57;;;;;;;7.22;1.35;;;;;;;27.88;44.71;100011.07;1667852;86;21155;-72
2021/06/18 10:02:39;;;;;;;6.10;1.30;;;;;;;27.97;44.31;100009.58;1668135;86;21522;-72
2021/06/18 10:05:16;;;;;;;3.55;1.37;;;;;;;28.02;44.32;100009.22;1667729;86;21107;-73
2021/06/18 10:07:43;;;;;;;2.87;1.10;;;;;;;28.05;44.34;100002.89;1668042;86;21000;-71
2021/06/18 10:10:17;;;;;;;3.35;1.20;;;;;;;28.12;44.31;99995.19;1667820;86;21107;-73
2021/06/18 10:12:45;;;;;;;5.87;1.27;;;;;;;28.28;45.29;100001.94;1664305;86;21082;-72
2021/06/18 10:15:16;;;;;;;2.83;1.20;;;;;;;28.50;44.85;99995.38;1667907;86;21566;-72
2021/06/18 10:17:45;;;;;;;3.20;1.20;;;;;;;28.75;44.04;99993.63;1668008;86;21064;-72
2021/06/18 10:20:17;;;;;;;7.17;1.30;;;;;;;28.83;42.51;100002.31;1667980;86;21090;-73
2021/06/18 10:23:07;;;;;;;4.67;1.00;;;;;;;28.77;42.53;99993.25;1668079;86;21040;-72
2021/06/18 10:25:59;;;;;;;5.17;1.10;;;;;;;28.75;42.82;99990.02;1667628;85;21237;-73
2021/06/18 10:28:29;;;;;;;4.55;1.30;;;;;;;28.68;42.83;99991.36;1667882;86;21562;-73
2021/06/18 10:30:59;;;;;;;3.42;1.35;;;;;;;28.68;44.13;99987.16;1667518;86;21084;-71
2021/06/18 10:33:37;;;;;;;5.40;1.52;;;;;;;28.83;43.33;99996.70;1667307;86;21092;-71
2021/06/18 10:36:23;;;;;;;3.02;1.22;;;;;;;28.91;43.00;99982.16;1667563;86;21104;-73
2021/06/18 10:39:07;;;;;;;7.35;1.82;;;;;;;28.94;42.35;99996.79;1668296;86;21522;-71
2021/06/18 10:41:52;;;;;;;5.50;1.37;;;;;;;28.81;42.96;100000.48;1673674;86;21612;-72
2021/06/18 10:44:42;;;;;;;6.55;1.82;;;;;;;28.78;42.74;99992.04;1650499;86;21110;-72
2021/06/18 10:47:34;;;;;;;2.70;1.10;;;;;;;28.70;42.36;99986.20;1675045;86;21035;-70
2021/06/18 10:50:01;;;;;;;2.65;1.30;;;;;;;28.70;42.34;99984.80;1675136;86;21594;-69
2021/06/18 10:52:38;;;;;;;5.05;1.42;;;;;;;28.69;43.23;99981.19;1674961;86;21058;-70
2021/06/18 10:55:05;;;;;;;3.77;1.17;;;;;;;28.75;43.02;99969.01;1675191;86;21599;-70
2021/06/18 10:57:32;;;;;;;7.17;1.30;;;;;;;28.79;42.65;99966.45;1675053;86;21074;-71
2021/06/18 11:00:13;;;;;;;2.50;1.25;;;;;;;28.84;41.93;99971.67;1675093;86;21611;-70
2021/06/18 11:02:40;;;;;;;3.37;1.30;;;;;;;28.84;42.15;99961.88;1673945;86;21538;-71
2021/06/18 11:05:12;;;;;;;7.47;1.90;;;;;;;28.86;43.10;99962.30;1674936;86;21166;-69
2021/06/18 11:07:39;;;;;;;24.77;18.75;;;;;;;28.96;42.84;99962.17;1675146;86;21027;-72
2021/06/18 11:10:14;;;;;;;4.15;1.47;;;;;;;29.05;42.42;99950.81;1674964;86;21659;-73
2021/06/18 11:12:48;;;;;;;3.52;1.40;;;;;;;29.18;42.15;99954.70;1675108;86;21051;-71
2021/06/18 11:15:22;;;;;;;4.15;1.12;;;;;;;29.12;41.29;99955.69;1674908;86;21086;-73
2021/06/18 11:17:54;;;;;;;5.20;1.22;;;;;;;29.00;42.58;99951.20;1675129;86;21524;-72
2021/06/18 11:20:41;;;;;;;3.80;1.40;;;;;;;29.00;42.39;99958.20;1674902;86;21097;-71
2021/06/18 11:23:22;;;;;;;3.40;1.42;;;;;;;28.86;42.44;99960.91;1675079;86;21039;-72
2021/06/18 11:25:52;;;;;;;5.00;1.72;;;;;;;28.57;42.69;99966.84;1674984;86;21169;-72
2021/06/18 11:28:27;;;;;;;5.17;1.50;;;;;;;28.41;43.20;99962.70;1675190;86;21090;-72
2021/06/18 11:31:21;;;;;;;10.70;5.78;;;;;;;28.45;44.42;99963.54;1675225;86;21054;-71
2021/06/18 11:33:45;;;;;;;3.05;1.40;;;;;;;28.64;44.38;99968.89;1673952;84;21062;-72
2021/06/18 11:36:24;;;;;;;3.77;1.50;;;;;;;28.96;43.90;99964.97;1674798;86;21102;-72
2021/06/18 11:39:00;;;;;;;5.20;1.40;;;;;;;29.24;43.39;99961.55;1674881;86;21046;-73
2021/06/18 11:41:29;;;;;;;3.60;1.40;;;;;;;29.48;42.13;99962.30;1674933;85;21157;-72
2021/06/18 11:43:57;;;;;;;5.58;1.67;;;;;;;29.53;42.06;99962.74;1675267;86;21050;-72
2021/06/18 11:46:26;;;;;;;6.17;2.20;;;;;;;29.55;42.16;99965.95;1674946;85;21078;-72